createdAt,value
2018-06-08T00:00:16.254Z,54.16
2018-06-08T00:02:45.945Z,55.33
2018-06-08T00:05:15.536Z,54.63
2018-06-08T00:07:44.986Z,55.04
2018-06-08T00:10:14.117Z,55.28
2018-06-08T00:12:44.237Z,55.79
2018-06-08T00:15:13.643Z,56.46
2018-06-08T00:17:43.169Z,56.41
2018-06-08T00:20:12.773Z,56.35
2018-06-08T00:22:42.876Z,56.26
2018-06-08T00:25:13.035Z,55.59
2018-06-08T00:27:42.530Z,56.01
2018-06-08T00:30:12.010Z,56.47
2018-06-08T00:32:41.703Z,57.21
2018-06-08T00:35:11.261Z,57.13
2018-06-08T00:37:40.767Z,57.35
2018-06-08T00:40:10.852Z,56.83
2018-06-08T00:42:40.601Z,57.48
2018-06-08T00:45:10.086Z,57.95
2018-06-08T00:47:39.623Z,58.18
2018-06-08T00:50:09.216Z,58.02
2018-06-08T00:52:38.951Z,58.21
2018-06-08T00:55:08.561Z,58.69
2018-06-08T00:57:38.013Z,59.35
2018-06-08T01:00:07.913Z,58.73
2018-06-08T01:02:37.458Z,59.21
2018-06-08T01:05:06.966Z,59.78
2018-06-08T01:07:36.623Z,59.74
2018-06-08T01:10:05.909Z,60.07
2018-06-08T01:12:35.359Z,60.22
2018-06-08T01:15:05.123Z,61.90
2018-06-08T01:17:34.750Z,62.13
2018-06-08T01:20:04.044Z,61.87
2018-06-08T01:22:33.926Z,62.05
2018-06-08T01:25:03.519Z,61.11
2018-06-08T01:27:32.947Z,61.62
2018-06-08T01:30:02.553Z,60.90
2018-06-08T01:32:32.098Z,61.41
2018-06-08T01:35:01.377Z,61.17
2018-06-08T01:37:31.495Z,61.48
2018-06-08T01:40:00.974Z,62.80
2018-06-08T01:42:30.409Z,62.75
2018-06-08T01:45:00.951Z,62.53
2018-06-08T01:47:30.400Z,62.69
2018-06-08T01:50:00.542Z,63.03
2018-06-08T01:52:30.035Z,63.30
2018-06-08T01:54:59.628Z,63.67
2018-06-08T01:57:29.136Z,63.72
2018-06-08T01:59:58.753Z,62.77
2018-06-08T02:02:31.469Z,63.92
2018-06-08T02:05:01.195Z,63.55
2018-06-08T02:07:30.867Z,63.97
2018-06-08T02:10:00.477Z,64.14
2018-06-08T02:12:29.954Z,64.03
2018-06-08T02:14:59.473Z,63.71
2018-06-08T02:17:28.985Z,65.35
2018-06-08T02:19:58.436Z,64.34
2018-06-08T02:22:27.981Z,64.93
2018-06-08T02:24:57.555Z,64.38
2018-06-08T02:27:27.041Z,65.12
2018-06-08T02:29:56.530Z,65.56
2018-06-08T02:32:26.381Z,66.10
2018-06-08T02:34:56.361Z,65.89
2018-06-08T02:37:26.110Z,66.92
2018-06-08T02:39:55.681Z,67.95
2018-06-08T02:42:25.111Z,68.79
2018-06-08T02:44:54.586Z,69.01
2018-06-08T02:47:24.082Z,69.02
2018-06-08T02:49:53.513Z,68.92
2018-06-08T02:52:23.070Z,68.29
2018-06-08T02:54:52.547Z,69.15
2018-06-08T02:57:21.996Z,69.87
2018-06-08T02:59:51.446Z,70.00
2018-06-08T03:02:20.933Z,69.63
2018-06-08T03:04:50.381Z,70.45
2018-06-08T03:07:20.192Z,70.31
2018-06-08T03:09:49.465Z,69.82
2018-06-08T03:12:18.987Z,69.99
2018-06-08T03:14:48.389Z,71.11
2018-06-08T03:17:17.914Z,70.83
2018-06-08T03:19:47.073Z,71.06
2018-06-08T03:22:16.631Z,71.03
2018-06-08T03:24:45.894Z,71.12
2018-06-08T03:27:15.369Z,70.70
2018-06-08T03:29:45.292Z,70.75
2018-06-08T03:32:14.822Z,70.92
2018-06-08T03:34:44.291Z,70.46
2018-06-08T03:37:13.832Z,70.23
2018-06-08T03:39:43.247Z,70.21
2018-06-08T03:42:12.674Z,70.51
2018-06-08T03:44:42.180Z,70.25
2018-06-08T03:47:11.962Z,71.11
2018-06-08T03:49:41.554Z,71.28
2018-06-08T03:52:10.942Z,71.14
2018-06-08T03:54:40.486Z,70.57
2018-06-08T03:57:10.792Z,70.77
2018-06-08T03:59:40.356Z,71.48
2018-06-08T04:02:10.554Z,71.08
2018-06-08T04:04:40.031Z,70.75
2018-06-08T04:07:09.562Z,71.61
2018-06-08T04:09:39.054Z,71.05
2018-06-08T04:12:08.535Z,72.01
2018-06-08T04:14:38.053Z,72.45
2018-06-08T04:17:07.702Z,72.43
2018-06-08T04:19:37.162Z,72.30
2018-06-08T04:22:08.169Z,72.09
2018-06-08T04:24:37.808Z,71.85
2018-06-08T04:27:07.286Z,71.85
2018-06-08T04:29:36.876Z,71.69
2018-06-08T04:32:06.736Z,72.21
2018-06-08T04:34:36.252Z,71.33
2018-06-08T04:37:05.770Z,71.70
2018-06-08T04:39:35.486Z,70.95
2018-06-08T04:42:05.066Z,69.60
2018-06-08T04:44:34.509Z,69.12
2018-06-08T04:47:04.032Z,70.81
2018-06-08T04:49:33.209Z,70.69
2018-06-08T04:52:02.599Z,69.44
2018-06-08T04:54:32.135Z,69.88
2018-06-08T04:57:01.713Z,68.97
2018-06-08T04:59:32.114Z,69.25
2018-06-08T05:02:01.828Z,68.83
2018-06-08T05:04:31.473Z,68.46
2018-06-08T05:07:01.146Z,66.88
2018-06-08T05:09:31.067Z,66.75
2018-06-08T05:12:00.572Z,66.16
2018-06-08T05:14:30.248Z,67.68
2018-06-08T05:16:59.415Z,68.79
2018-06-08T05:19:29.021Z,67.40
2018-06-08T05:21:58.467Z,68.37
2018-06-08T05:24:27.998Z,70.15
2018-06-08T05:26:57.554Z,68.00
2018-06-08T05:29:27.064Z,66.59
2018-06-08T05:31:56.747Z,67.37
2018-06-08T05:34:26.811Z,67.39
2018-06-08T05:36:55.989Z,68.29
2018-06-08T05:39:27.107Z,67.98
2018-06-08T05:41:57.632Z,68.03
2018-06-08T05:44:28.009Z,67.11
2018-06-08T05:46:57.996Z,65.91
2018-06-08T05:49:28.028Z,66.20
2018-06-08T05:51:57.522Z,66.58
2018-06-08T05:54:27.002Z,64.44
2018-06-08T05:56:56.504Z,63.03
2018-06-08T05:59:26.182Z,63.70
2018-06-08T06:01:56.333Z,64.39
2018-06-08T06:04:25.858Z,62.28
2018-06-08T06:06:55.405Z,63.06
2018-06-08T06:09:25.377Z,61.88
2018-06-08T06:11:55.015Z,62.36
2018-06-08T06:14:24.496Z,61.16
2018-06-08T06:16:54.084Z,62.03
2018-06-08T06:19:23.512Z,62.43
2018-06-08T06:21:53.034Z,60.54
2018-06-08T06:24:22.541Z,58.78
2018-06-08T06:26:52.025Z,59.46
2018-06-08T06:29:21.445Z,60.68
2018-06-08T06:31:50.973Z,57.08
2018-06-08T06:34:20.921Z,58.76
2018-06-08T06:36:51.059Z,58.16
2018-06-08T06:39:20.593Z,59.77
2018-06-08T06:41:50.054Z,56.22
2018-06-08T06:44:19.229Z,56.92
2018-06-08T06:46:48.662Z,57.22
2018-06-08T06:49:18.138Z,56.06
2018-06-08T06:51:47.561Z,56.40
2018-06-08T06:54:16.760Z,54.76
2018-06-08T06:56:46.933Z,56.33
2018-06-08T06:59:16.435Z,55.53
2018-06-08T07:01:46.116Z,55.42
2018-06-08T07:04:15.666Z,56.24
2018-06-08T07:06:45.586Z,56.92
2018-06-08T07:09:15.428Z,55.94
2018-06-08T07:11:45.012Z,54.94
2018-06-08T07:14:15.955Z,55.05
2018-06-08T07:16:52.736Z,52.84
2018-06-08T07:19:22.622Z,53.47
2018-06-08T07:21:57.145Z,55.63
2018-06-08T07:24:26.641Z,54.26
2018-06-08T07:26:56.341Z,53.25
2018-06-08T07:29:27.717Z,53.85
2018-06-08T07:31:57.865Z,52.06
2018-06-08T07:34:27.316Z,51.36
2018-06-08T07:36:57.643Z,51.29
2018-06-08T07:39:27.334Z,51.64
2018-06-08T07:41:56.793Z,48.62
2018-06-08T07:44:28.106Z,51.28
2018-06-08T07:46:57.860Z,51.60
2018-06-08T07:49:27.602Z,51.10
2018-06-08T07:51:57.716Z,51.06
2018-06-08T07:54:28.476Z,50.39
2018-06-08T07:57:02.478Z,49.32
2018-06-08T07:59:32.167Z,49.29
2018-06-08T08:02:06.493Z,50.21
2018-06-08T08:04:36.164Z,47.99
2018-06-08T08:07:06.310Z,47.79
2018-06-08T08:09:36.793Z,48.11
2018-06-08T08:12:07.684Z,46.35
2018-06-08T08:14:37.324Z,46.17
2018-06-08T08:17:07.936Z,46.25
2018-06-08T08:19:38.836Z,44.34
2018-06-08T08:22:09.979Z,45.55
2018-06-08T08:24:39.794Z,46.72
2018-06-08T08:27:10.231Z,46.76
2018-06-08T08:29:40.627Z,46.02
2018-06-08T08:32:10.301Z,44.81
2018-06-08T08:34:39.505Z,46.95
2018-06-08T08:37:08.778Z,46.88
2018-06-08T08:39:38.790Z,46.69
2018-06-08T08:42:09.517Z,44.66
2018-06-08T08:44:39.143Z,45.48
2018-06-08T08:47:10.549Z,45.92
2018-06-08T08:49:40.211Z,46.50
2018-06-08T08:52:11.227Z,47.24
2018-06-08T08:54:41.365Z,44.68
2018-06-08T08:57:10.922Z,43.91
2018-06-08T08:59:41.211Z,43.04
2018-06-08T09:02:10.672Z,42.16
2018-06-08T09:04:40.081Z,43.50
2018-06-08T09:07:09.581Z,43.83
2018-06-08T09:09:40.920Z,44.00
2018-06-08T09:12:10.423Z,41.80
2018-06-08T09:14:40.468Z,44.83
2018-06-08T09:17:10.003Z,44.14
2018-06-08T09:19:39.481Z,44.44
2018-06-08T09:22:09.001Z,43.78
2018-06-08T09:24:39.652Z,43.84
2018-06-08T09:27:10.200Z,42.48
2018-06-08T09:29:39.664Z,43.51
2018-06-08T09:32:09.524Z,42.48
2018-06-08T09:34:39.197Z,38.78
2018-06-08T09:37:09.431Z,39.80
2018-06-08T09:39:39.751Z,40.66
2018-06-08T09:42:10.379Z,40.58
2018-06-08T09:44:40.401Z,39.82
2018-06-08T09:47:10.072Z,40.85
2018-06-08T09:49:39.917Z,40.60
2018-06-08T09:52:09.600Z,39.64
2018-06-08T09:54:39.065Z,39.80
2018-06-08T09:57:08.891Z,39.76
2018-06-08T09:59:38.917Z,40.41
2018-06-08T10:02:08.762Z,39.65
2018-06-08T10:04:38.272Z,37.98
2018-06-08T10:07:07.887Z,36.98
2018-06-08T10:09:37.409Z,39.63
2018-06-08T10:12:06.997Z,38.37
2018-06-08T10:14:37.011Z,38.13
2018-06-08T10:17:06.491Z,36.39
2018-06-08T10:19:36.150Z,35.08
2018-06-08T10:22:05.636Z,34.26
2018-06-08T10:24:35.784Z,32.47
2018-06-08T10:27:05.240Z,35.30
2018-06-08T10:29:34.797Z,34.32
2018-06-08T10:32:04.902Z,35.60
2018-06-08T10:34:34.409Z,37.25
2018-06-08T10:37:04.044Z,34.29
2018-06-08T10:39:33.554Z,35.79
2018-06-08T10:42:03.332Z,36.52
2018-06-08T10:44:32.822Z,36.96
2018-06-08T10:47:02.286Z,36.79
2018-06-08T10:49:32.882Z,36.82
2018-06-08T10:52:02.490Z,36.02
2018-06-08T10:54:32.023Z,34.29
2018-06-08T10:57:01.422Z,35.32
2018-06-08T10:59:31.028Z,35.16
2018-06-08T11:02:00.770Z,34.09
2018-06-08T11:04:30.846Z,36.18
2018-06-08T11:07:02.486Z,35.72
2018-06-08T11:09:32.509Z,36.13
2018-06-08T11:12:01.993Z,34.00
2018-06-08T11:14:31.441Z,34.58
2018-06-08T11:17:01.067Z,34.82
2018-06-08T11:19:30.533Z,32.75
2018-06-08T11:22:00.052Z,33.61
2018-06-08T11:24:29.539Z,33.67
2018-06-08T11:26:58.994Z,32.57
2018-06-08T11:29:28.498Z,32.67
2018-06-08T11:31:57.795Z,33.77
2018-06-08T11:34:27.374Z,33.39
2018-06-08T11:36:56.829Z,32.87
2018-06-08T11:39:26.738Z,32.75
2018-06-08T11:41:56.196Z,32.32
2018-06-08T11:44:26.723Z,34.23
2018-06-08T11:46:56.292Z,32.06
2018-06-08T11:49:25.852Z,32.61
2018-06-08T11:51:55.373Z,32.25
2018-06-08T11:54:24.925Z,32.66
2018-06-08T11:56:54.648Z,33.47
2018-06-08T11:59:24.784Z,30.01
2018-06-08T12:01:54.327Z,31.07
2018-06-08T12:04:24.026Z,30.96
2018-06-08T12:06:53.620Z,30.72
2018-06-08T12:09:23.142Z,31.26
2018-06-08T12:11:52.725Z,29.43
2018-06-08T12:14:22.243Z,29.45
2018-06-08T12:16:51.747Z,30.41
2018-06-08T12:19:21.509Z,27.75
2018-06-08T12:21:51.174Z,27.29
2018-06-08T12:24:21.125Z,27.07
2018-06-08T12:26:50.720Z,25.34
2018-06-08T12:29:20.923Z,24.46
2018-06-08T12:31:50.411Z,23.15
2018-06-08T12:34:19.799Z,21.05
2018-06-08T12:36:50.163Z,22.49
2018-06-08T12:39:19.716Z,22.17
2018-06-08T12:41:49.298Z,22.46
2018-06-08T12:44:18.728Z,21.63
2018-06-08T12:46:48.793Z,21.42
2018-06-08T12:49:18.335Z,22.28
2018-06-08T12:51:48.577Z,18.72
2018-06-08T12:54:18.532Z,19.48
2018-06-08T12:56:48.021Z,19.41
2018-06-08T12:59:17.650Z,21.96
2018-06-08T13:01:47.111Z,25.47
2018-06-08T13:04:16.994Z,25.94
2018-06-08T13:06:46.559Z,28.17
2018-06-08T13:09:16.410Z,27.63
2018-06-08T13:11:45.957Z,27.71
2018-06-08T13:14:15.725Z,23.88
2018-06-08T13:16:45.149Z,24.05
2018-06-08T13:19:14.808Z,23.89
2018-06-08T13:21:44.721Z,24.40
2018-06-08T13:24:14.352Z,26.52
2018-06-08T13:26:43.761Z,27.18
2018-06-08T13:29:13.286Z,23.12
2018-06-08T13:31:42.961Z,20.82
2018-06-08T13:34:12.466Z,21.13
2018-06-08T13:36:41.948Z,19.17
2018-06-08T13:39:11.198Z,19.90
2018-06-08T13:41:40.672Z,20.49
2018-06-08T13:44:10.110Z,21.35
2018-06-08T13:46:46.821Z,22.30
2018-06-08T13:49:16.122Z,23.47
2018-06-08T13:51:45.271Z,25.52
2018-06-08T13:54:14.758Z,25.51
2018-06-08T13:56:44.316Z,26.71
2018-06-08T13:59:13.793Z,26.72
2018-06-08T14:01:43.364Z,26.88
2018-06-08T14:04:12.818Z,26.08
2018-06-08T14:06:42.282Z,22.45
2018-06-08T14:09:11.745Z,20.96
2018-06-08T14:11:41.252Z,20.79
2018-06-08T14:14:10.719Z,20.58
2018-06-08T14:16:40.326Z,18.00
2018-06-08T14:19:09.814Z,17.50
2018-06-08T14:21:39.483Z,17.61
2018-06-08T14:24:09.138Z,17.25
2018-06-08T14:26:38.685Z,17.29
2018-06-08T14:29:08.216Z,18.77
2018-06-08T14:31:37.622Z,18.82
2018-06-08T14:34:07.871Z,19.24
2018-06-08T14:36:37.288Z,21.53
2018-06-08T14:39:09.148Z,22.93
2018-06-08T14:41:38.686Z,19.93
2018-06-08T14:44:08.181Z,19.55
2018-06-08T14:46:37.786Z,20.20
2018-06-08T14:49:07.349Z,20.47
2018-06-08T14:51:36.574Z,20.71
2018-06-08T14:54:06.070Z,20.37
2018-06-08T14:56:35.610Z,21.79
2018-06-08T14:59:05.174Z,21.18
2018-06-08T15:01:34.815Z,21.54
2018-06-08T15:04:04.361Z,21.71
2018-06-08T15:06:33.981Z,22.41
2018-06-08T15:09:03.786Z,22.95
2018-06-08T15:11:33.246Z,22.73
2018-06-08T15:14:02.769Z,23.99
2018-06-08T15:16:32.266Z,25.89
2018-06-08T15:19:02.200Z,25.56
2018-06-08T15:21:31.922Z,24.95
2018-06-08T15:24:01.402Z,26.51
2018-06-08T15:26:31.637Z,27.70
2018-06-08T15:29:01.146Z,29.04
2018-06-08T15:31:30.660Z,28.66
2018-06-08T15:34:00.135Z,28.99
2018-06-08T15:36:29.680Z,29.42
2018-06-08T15:38:59.267Z,28.51
2018-06-08T15:41:29.120Z,28.18
2018-06-08T15:43:58.951Z,29.58
2018-06-08T15:46:28.241Z,29.64
2018-06-08T15:48:58.121Z,31.21
2018-06-08T15:51:27.696Z,31.88
2018-06-08T15:53:57.193Z,32.19
2018-06-08T15:56:26.836Z,30.97
2018-06-08T15:58:56.394Z,32.35
2018-06-08T16:01:25.733Z,32.61
2018-06-08T16:03:55.241Z,34.17
2018-06-08T16:06:24.913Z,33.70
2018-06-08T16:08:54.370Z,34.06
2018-06-08T16:11:24.041Z,34.64
2018-06-08T16:13:53.623Z,35.25
2018-06-08T16:16:23.102Z,36.60
2018-06-08T16:18:52.645Z,36.54
2018-06-08T16:21:22.393Z,36.39
2018-06-08T16:23:52.839Z,37.35
2018-06-08T16:26:22.433Z,37.60
2018-06-08T16:28:51.931Z,37.33
2018-06-08T16:31:21.353Z,37.39
2018-06-08T16:33:51.392Z,38.25
2018-06-08T16:36:21.855Z,38.44
2018-06-08T16:38:51.632Z,39.12
2018-06-08T16:41:22.139Z,39.89
2018-06-08T16:43:52.302Z,39.78
2018-06-08T16:46:21.709Z,40.26
2018-06-08T16:48:51.249Z,40.50
2018-06-08T16:51:21.125Z,39.40
2018-06-08T16:53:50.558Z,40.20
2018-06-08T16:56:20.065Z,40.51
2018-06-08T16:58:49.330Z,41.13
2018-06-08T17:01:18.870Z,41.40
2018-06-08T17:03:48.868Z,41.31
2018-06-08T17:06:18.617Z,41.76
2018-06-08T17:08:52.843Z,40.54
2018-06-08T17:11:22.788Z,41.36
2018-06-08T17:13:52.278Z,41.85
2018-06-08T17:16:21.809Z,42.04
2018-06-08T17:18:51.328Z,41.32
2018-06-08T17:21:20.762Z,40.95
2018-06-08T17:23:50.023Z,41.06
2018-06-08T17:26:19.501Z,40.76
2018-06-08T17:28:49.003Z,41.93
2018-06-08T17:31:18.818Z,41.57
2018-06-08T17:33:48.337Z,41.55
2018-06-08T17:36:18.070Z,42.60
2018-06-08T17:38:49.141Z,42.88
2018-06-08T17:41:18.598Z,42.46
2018-06-08T17:43:49.872Z,42.24
2018-06-08T17:46:19.378Z,42.46
2018-06-08T17:48:48.843Z,42.49
2018-06-08T17:51:19.092Z,42.24
2018-06-08T17:53:48.561Z,42.59
2018-06-08T17:56:18.140Z,42.99
2018-06-08T17:58:48.021Z,42.71
2018-06-08T18:01:17.826Z,43.00
2018-06-08T18:03:47.316Z,43.64
2018-06-08T18:06:17.235Z,43.99
2018-06-08T18:08:46.722Z,44.32
2018-06-08T18:11:16.361Z,43.90
2018-06-08T18:13:45.841Z,44.37
2018-06-08T18:16:15.259Z,43.90
2018-06-08T18:18:44.733Z,44.96
2018-06-08T18:21:13.970Z,44.87
2018-06-08T18:23:43.397Z,45.74
2018-06-08T18:26:12.895Z,45.78
2018-06-08T18:28:42.409Z,46.05
2018-06-08T18:31:11.881Z,45.78
2018-06-08T18:33:41.421Z,46.69
2018-06-08T18:36:10.920Z,47.29
2018-06-08T18:38:40.964Z,47.31
2018-06-08T18:41:10.459Z,46.90
2018-06-08T18:43:39.923Z,47.60
2018-06-08T18:46:09.450Z,47.27
2018-06-08T18:48:39.178Z,46.84
2018-06-08T18:51:08.746Z,47.58
2018-06-08T18:53:39.194Z,47.61
2018-06-08T18:56:08.794Z,47.52
2018-06-08T18:58:38.332Z,47.93
2018-06-08T19:01:07.782Z,47.84
2018-06-08T19:03:37.537Z,48.51
2018-06-08T19:06:06.970Z,48.06
2018-06-08T19:08:36.653Z,49.23
2018-06-08T19:11:06.162Z,49.05
2018-06-08T19:13:35.694Z,48.86
2018-06-08T19:16:05.512Z,49.30
2018-06-08T19:18:34.986Z,49.14
2018-06-08T19:21:04.445Z,48.66
2018-06-08T19:23:33.620Z,48.53
2018-06-08T19:26:03.114Z,48.85
2018-06-08T19:28:32.563Z,48.78
2018-06-08T19:31:02.103Z,48.36
2018-06-08T19:33:31.649Z,48.87
2018-06-08T19:36:01.174Z,48.95
2018-06-08T19:38:30.443Z,49.81
2018-06-08T19:40:59.886Z,49.37
2018-06-08T19:43:29.539Z,50.14
2018-06-08T19:45:59.007Z,50.15
2018-06-08T19:48:40.542Z,50.42
2018-06-08T19:51:09.995Z,49.71
2018-06-08T19:53:39.529Z,50.63
2018-06-08T19:56:09.024Z,50.79
2018-06-08T19:58:38.549Z,50.59
2018-06-08T20:01:08.425Z,50.94
2018-06-08T20:03:37.981Z,50.39
2018-06-08T20:06:07.588Z,51.24
2018-06-08T20:08:37.091Z,51.49
2018-06-08T20:11:06.910Z,51.56
2018-06-08T20:13:36.351Z,51.15
2018-06-08T20:16:05.625Z,51.43
2018-06-08T20:18:35.256Z,51.72
2018-06-08T20:21:04.943Z,52.30
2018-06-08T20:23:34.473Z,52.59
2018-06-08T20:26:04.130Z,53.13
2018-06-08T20:28:34.985Z,52.74
2018-06-08T20:31:11.653Z,53.58
2018-06-08T20:33:41.910Z,54.02
2018-06-08T20:36:11.682Z,54.26
2018-06-08T20:38:41.218Z,54.11
2018-06-08T20:41:10.731Z,53.76
2018-06-08T20:43:40.991Z,54.04
2018-06-08T20:46:10.557Z,54.23
2018-06-08T20:48:40.031Z,54.89
2018-06-08T20:51:09.580Z,55.21
2018-06-08T20:53:39.170Z,54.65
2018-06-08T21:01:02.237Z,55.41
2018-06-08T21:03:31.858Z,56.08
2018-06-08T21:06:01.412Z,55.82
2018-06-08T21:08:30.624Z,56.65
2018-06-08T21:11:03.838Z,56.22
2018-06-08T21:13:33.534Z,55.95
2018-06-08T21:16:02.934Z,56.68
2018-06-08T21:18:32.692Z,56.23
2018-06-08T21:21:02.806Z,56.62
2018-06-08T21:23:32.290Z,56.70
2018-06-08T21:26:02.273Z,57.52
2018-06-08T21:28:32.161Z,57.79
2018-06-08T21:31:02.267Z,57.40
2018-06-08T21:33:32.661Z,57.89
2018-06-08T21:36:01.941Z,57.82
2018-06-08T21:38:32.721Z,58.34
2018-06-08T21:41:02.238Z,58.70
2018-06-08T21:43:32.166Z,58.93
2018-06-08T21:46:01.762Z,58.36
2018-06-08T21:48:31.241Z,58.37
2018-06-08T21:51:00.806Z,58.74
2018-06-08T21:53:30.297Z,58.98
2018-06-08T21:55:59.934Z,59.29
2018-06-08T21:58:29.334Z,58.82
2018-06-08T22:00:59.505Z,58.76
2018-06-08T22:03:29.046Z,59.43
2018-06-08T22:05:58.843Z,59.63
2018-06-08T22:08:28.336Z,59.81
2018-06-08T22:11:08.529Z,59.43
2018-06-08T22:13:38.003Z,59.68
2018-06-08T22:16:07.510Z,59.62
2018-06-08T22:18:37.038Z,60.30
2018-06-08T22:21:06.470Z,60.12
2018-06-08T22:23:36.664Z,60.05
2018-06-08T22:26:06.390Z,60.62
2018-06-08T22:28:35.854Z,61.39
2018-06-08T22:31:05.522Z,60.99
2018-06-08T22:33:34.964Z,61.12
2018-06-08T22:36:04.523Z,60.71
2018-06-08T22:38:34.506Z,61.55
2018-06-08T22:41:04.549Z,60.67
2018-06-08T22:43:33.971Z,61.35
2018-06-08T22:46:03.463Z,62.06
2018-06-08T22:48:33.054Z,61.76
2018-06-08T22:51:02.570Z,61.86
2018-06-08T22:53:32.064Z,62.40
2018-06-08T22:56:01.579Z,62.16
2018-06-08T22:58:31.472Z,62.50
2018-06-08T23:01:01.304Z,62.43
2018-06-08T23:03:30.803Z,62.44
2018-06-08T23:06:00.210Z,63.53
2018-06-08T23:08:29.937Z,64.14
2018-06-08T23:10:59.449Z,64.89
2018-06-08T23:13:28.910Z,64.72
2018-06-08T23:15:58.384Z,64.71
2018-06-08T23:18:27.553Z,65.91
2018-06-08T23:20:57.477Z,65.43
2018-06-08T23:23:27.196Z,64.81
2018-06-08T23:25:56.729Z,65.22
2018-06-08T23:28:25.957Z,65.32
2018-06-08T23:30:55.404Z,65.88
2018-06-08T23:33:25.722Z,65.66
2018-06-08T23:35:55.357Z,65.47
2018-06-08T23:38:24.793Z,65.58
2018-06-08T23:40:54.438Z,65.39
2018-06-08T23:43:23.935Z,65.16
2018-06-08T23:45:53.341Z,65.46
2018-06-08T23:48:22.868Z,65.55
2018-06-08T23:50:52.344Z,65.58
2018-06-08T23:53:21.812Z,67.02
2018-06-08T23:55:51.715Z,66.83
2018-06-08T23:58:20.992Z,66.79
